sensor_id;sensor_type;location;lat;lon;timestamp;pressure;altitude;pressure_sealevel;temperature;humidity
20656;BME280;10487;53.320;8.672;2023-02-12T00:00:46;103372.31;;;5.60;62.43
20656;BME280;10487;53.320;8.672;2023-02-12T00:03:48;103382.94;;;5.58;62.59
20656;BME280;10487;53.320;8.672;2023-02-12T00:06:50;103390.94;;;5.57;62.50
20656;BME280;10487;53.320;8.672;2023-02-12T00:09:51;103390.03;;;5.56;62.50
20656;BME280;10487;53.320;8.672;2023-02-12T00:12:53;103395.34;;;5.56;62.68
20656;BME280;10487;53.320;8.672;2023-02-12T00:15:55;103396.22;;;5.55;62.53
20656;BME280;10487;53.320;8.672;2023-02-12T00:18:57;103394.47;;;5.53;62.52
20656;BME280;10487;53.320;8.672;2023-02-12T00:21:59;103402.44;;;5.53;62.55
20656;BME280;10487;53.320;8.672;2023-02-12T00:25:01;103398.03;;;5.52;62.61
20656;BME280;10487;53.320;8.672;2023-02-12T00:28:02;103399.81;;;5.51;62.78
20656;BME280;10487;53.320;8.672;2023-02-12T00:31:11;103403.34;;;5.52;62.66
20656;BME280;10487;53.320;8.672;2023-02-12T00:34:13;103405.09;;;5.50;62.79
20656;BME280;10487;53.320;8.672;2023-02-12T00:37:15;103405.09;;;5.50;62.73
20656;BME280;10487;53.320;8.672;2023-02-12T00:40:17;103409.56;;;5.49;62.75
20656;BME280;10487;53.320;8.672;2023-02-12T00:43:18;103411.28;;;5.50;62.72
20656;BME280;10487;53.320;8.672;2023-02-12T00:46:20;103413.03;;;5.50;62.72
20656;BME280;10487;53.320;8.672;2023-02-12T00:49:23;103418.34;;;5.51;62.78
20656;BME280;10487;53.320;8.672;2023-02-12T00:52:25;103410.38;;;5.53;62.73
20656;BME280;10487;53.320;8.672;2023-02-12T00:55:26;103410.38;;;5.53;62.77
20656;BME280;10487;53.320;8.672;2023-02-12T00:58:28;103420.97;;;5.53;62.93
20656;BME280;10487;53.320;8.672;2023-02-12T01:01:30;103420.09;;;5.54;63.00
20656;BME280;10487;53.320;8.672;2023-02-12T01:04:31;103422.72;;;5.54;62.76
20656;BME280;10487;53.320;8.672;2023-02-12T01:07:33;103422.72;;;5.54;62.88
20656;BME280;10487;53.320;8.672;2023-02-12T01:10:35;103422.72;;;5.52;62.97
20656;BME280;10487;53.320;8.672;2023-02-12T01:13:36;103416.56;;;5.53;63.00
20656;BME280;10487;53.320;8.672;2023-02-12T01:16:38;103417.44;;;5.54;62.80
20656;BME280;10487;53.320;8.672;2023-02-12T01:19:40;103419.19;;;5.53;62.79
20656;BME280;10487;53.320;8.672;2023-02-12T01:22:42;103420.97;;;5.53;62.86
20656;BME280;10487;53.320;8.672;2023-02-12T01:25:45;103413.94;;;5.52;62.99
20656;BME280;10487;53.320;8.672;2023-02-12T01:28:50;103409.50;;;5.52;62.92
20656;BME280;10487;53.320;8.672;2023-02-12T01:31:52;103402.44;;;5.53;62.83
20656;BME280;10487;53.320;8.672;2023-02-12T01:34:54;103404.22;;;5.51;62.94
20656;BME280;10487;53.320;8.672;2023-02-12T01:37:56;103415.69;;;5.51;62.94
20656;BME280;10487;53.320;8.672;2023-02-12T01:41:07;103420.16;;;5.49;63.13
20656;BME280;10487;53.320;8.672;2023-02-12T01:44:24;103412.19;;;5.48;63.00
20656;BME280;10487;53.320;8.672;2023-02-12T01:47:26;103411.31;;;5.47;62.92
20656;BME280;10487;53.320;8.672;2023-02-12T01:50:28;103403.38;;;5.49;62.93
20656;BME280;10487;53.320;8.672;2023-02-12T01:53:37;103408.66;;;5.49;62.94
20656;BME280;10487;53.320;8.672;2023-02-12T01:56:39;103408.66;;;5.49;62.86
20656;BME280;10487;53.320;8.672;2023-02-12T01:59:44;103399.88;;;5.47;63.05
20656;BME280;10487;53.320;8.672;2023-02-12T02:02:52;103402.50;;;5.47;62.94
20656;BME280;10487;53.320;8.672;2023-02-12T02:06:00;103401.63;;;5.45;62.96
20656;BME280;10487;53.320;8.672;2023-02-12T02:09:04;103395.50;;;5.41;62.91
20656;BME280;10487;53.320;8.672;2023-02-12T02:12:06;103397.25;;;5.40;63.03
20656;BME280;10487;53.320;8.672;2023-02-12T02:15:29;103399.06;;;5.38;62.95
20656;BME280;10487;53.320;8.672;2023-02-12T02:18:49;103399.09;;;5.35;63.04
20656;BME280;10487;53.320;8.672;2023-02-12T02:32:56;103400.94;;;5.26;63.16
20656;BME280;10487;53.320;8.672;2023-02-12T02:36:10;103406.28;;;5.24;63.17
20656;BME280;10487;53.320;8.672;2023-02-12T02:42:42;103399.25;;;5.22;63.12
20656;BME280;10487;53.320;8.672;2023-02-12T02:45:50;103395.69;;;5.20;63.06
20656;BME280;10487;53.320;8.672;2023-02-12T02:49:01;103400.13;;;5.21;63.18
20656;BME280;10487;53.320;8.672;2023-02-12T02:52:08;103401.00;;;5.21;63.04
20656;BME280;10487;53.320;8.672;2023-02-12T02:55:13;103402.78;;;5.19;63.04
20656;BME280;10487;53.320;8.672;2023-02-12T02:58:23;103401.03;;;5.18;63.13
20656;BME280;10487;53.320;8.672;2023-02-12T03:01:31;103395.75;;;5.17;63.10
20656;BME280;10487;53.320;8.672;2023-02-12T03:04:41;103405.47;;;5.16;63.05
20656;BME280;10487;53.320;8.672;2023-02-12T03:07:49;103401.03;;;5.15;63.06
20656;BME280;10487;53.320;8.672;2023-02-12T03:11:12;103411.63;;;5.15;63.17
20656;BME280;10487;53.320;8.672;2023-02-12T03:14:21;103406.38;;;5.14;63.13
20656;BME280;10487;53.320;8.672;2023-02-12T03:17:28;103411.66;;;5.14;63.21
20656;BME280;10487;53.320;8.672;2023-02-12T03:20:35;103401.94;;;5.11;63.24
20656;BME280;10487;53.320;8.672;2023-02-12T03:23:51;103397.53;;;5.10;63.12
20656;BME280;10487;53.320;8.672;2023-02-12T03:27:20;103402.81;;;5.10;63.23
20656;BME280;10487;53.320;8.672;2023-02-12T03:30:47;103407.22;;;5.10;63.21
20656;BME280;10487;53.320;8.672;2023-02-12T03:37:08;103407.28;;;5.07;63.14
20656;BME280;10487;53.320;8.672;2023-02-12T03:46:39;103410.78;;;5.07;63.19
20656;BME280;10487;53.320;8.672;2023-02-12T03:52:44;103418.72;;;5.07;63.38
20656;BME280;10487;53.320;8.672;2023-02-12T03:55:48;103420.50;;;5.08;63.25
20656;BME280;10487;53.320;8.672;2023-02-12T03:58:52;103429.31;;;5.09;63.32
20656;BME280;10487;53.320;8.672;2023-02-12T04:01:57;103429.31;;;5.09;63.27
20656;BME280;10487;53.320;8.672;2023-02-12T04:05:04;103431.09;;;5.08;63.25
20656;BME280;10487;53.320;8.672;2023-02-12T04:08:08;103424.94;;;5.06;63.43
20656;BME280;10487;53.320;8.672;2023-02-12T04:11:36;103428.44;;;5.05;63.27
20656;BME280;10487;53.320;8.672;2023-02-12T04:18:18;103415.25;;;5.02;63.23
20656;BME280;10487;53.320;8.672;2023-02-12T04:34:26;103433.81;;;4.99;63.29
20656;BME280;10487;53.320;8.672;2023-02-12T04:37:44;103439.09;;;4.99;63.39
20656;BME280;10487;53.320;8.672;2023-02-12T04:40:49;103432.06;;;5.00;63.45
20656;BME280;10487;53.320;8.672;2023-02-12T04:43:52;103443.50;;;5.02;63.36
20656;BME280;10487;53.320;8.672;2023-02-12T04:46:53;103437.31;;;5.01;63.31
20656;BME280;10487;53.320;8.672;2023-02-12T04:49:55;103436.47;;;4.99;63.28
20656;BME280;10487;53.320;8.672;2023-02-12T04:52:57;103438.25;;;4.97;63.43
20656;BME280;10487;53.320;8.672;2023-02-12T04:55:58;103440.00;;;4.97;63.37
20656;BME280;10487;53.320;8.672;2023-02-12T04:59:00;103440.00;;;4.97;63.22
20656;BME280;10487;53.320;8.672;2023-02-12T05:02:01;103440.00;;;4.95;63.33
20656;BME280;10487;53.320;8.672;2023-02-12T05:05:03;103429.41;;;4.95;63.50
20656;BME280;10487;53.320;8.672;2023-02-12T05:08:05;103432.97;;;4.94;63.47
20656;BME280;10487;53.320;8.672;2023-02-12T05:11:08;103437.34;;;4.95;63.44
20656;BME280;10487;53.320;8.672;2023-02-12T05:14:10;103443.53;;;4.96;63.47
20656;BME280;10487;53.320;8.672;2023-02-12T05:17:12;103432.94;;;4.96;63.50
20656;BME280;10487;53.320;8.672;2023-02-12T05:20:14;103426.78;;;4.95;63.54
20656;BME280;10487;53.320;8.672;2023-02-12T05:23:15;103434.72;;;4.95;63.33
20656;BME280;10487;53.320;8.672;2023-02-12T05:26:18;103434.72;;;4.94;63.46
20656;BME280;10487;53.320;8.672;2023-02-12T05:29:20;103433.84;;;4.95;63.40
20656;BME280;10487;53.320;8.672;2023-02-12T05:32:22;103435.59;;;4.96;63.36
20656;BME280;10487;53.320;8.672;2023-02-12T05:35:24;103445.28;;;4.95;63.59
20656;BME280;10487;53.320;8.672;2023-02-12T05:38:25;103440.00;;;4.95;63.53
20656;BME280;10487;53.320;8.672;2023-02-12T05:41:27;103437.34;;;4.95;63.67
20656;BME280;10487;53.320;8.672;2023-02-12T05:44:29;103440.91;;;4.94;63.46
20656;BME280;10487;53.320;8.672;2023-02-12T05:47:30;103436.50;;;4.95;63.56
20656;BME280;10487;53.320;8.672;2023-02-12T05:50:32;103443.53;;;4.96;63.49
20656;BME280;10487;53.320;8.672;2023-02-12T05:53:35;103444.41;;;4.96;63.41
20656;BME280;10487;53.320;8.672;2023-02-12T05:56:42;103454.13;;;4.97;63.48
20656;BME280;10487;53.320;8.672;2023-02-12T05:59:44;103455.00;;;4.96;63.40
20656;BME280;10487;53.320;8.672;2023-02-12T06:02:45;103456.78;;;4.97;63.42
20656;BME280;10487;53.320;8.672;2023-02-12T06:05:50;103456.78;;;4.97;63.32
20656;BME280;10487;53.320;8.672;2023-02-12T06:08:52;103462.06;;;4.96;63.59
20656;BME280;10487;53.320;8.672;2023-02-12T06:11:54;103470.00;;;4.97;63.50
20656;BME280;10487;53.320;8.672;2023-02-12T06:14:56;103472.66;;;4.97;63.43
20656;BME280;10487;53.320;8.672;2023-02-12T06:17:57;103470.00;;;4.97;63.54
20656;BME280;10487;53.320;8.672;2023-02-12T06:20:59;103478.81;;;4.96;63.49
20656;BME280;10487;53.320;8.672;2023-02-12T06:24:00;103477.94;;;4.96;63.57
20656;BME280;10487;53.320;8.672;2023-02-12T06:27:02;103480.59;;;4.96;63.54
20656;BME280;10487;53.320;8.672;2023-02-12T06:30:04;103481.50;;;4.95;63.55
20656;BME280;10487;53.320;8.672;2023-02-12T06:33:06;103477.06;;;4.94;63.62
20656;BME280;10487;53.320;8.672;2023-02-12T06:36:07;103479.69;;;4.95;63.68
20656;BME280;10487;53.320;8.672;2023-02-12T06:39:10;103484.13;;;4.95;63.44
20656;BME280;10487;53.320;8.672;2023-02-12T06:42:12;103485.00;;;4.94;63.45
20656;BME280;10487;53.320;8.672;2023-02-12T06:45:13;103492.94;;;4.95;63.63
20656;BME280;10487;53.320;8.672;2023-02-12T06:48:15;103497.38;;;4.95;63.64
20656;BME280;10487;53.320;8.672;2023-02-12T06:51:17;103495.56;;;4.95;63.60
20656;BME280;10487;53.320;8.672;2023-02-12T06:54:22;103500.00;;;4.96;63.77
20656;BME280;10487;53.320;8.672;2023-02-12T06:57:23;103505.16;;;5.17;64.05
20656;BME280;10487;53.320;8.672;2023-02-12T07:00:25;103502.28;;;5.43;64.17
20656;BME280;10487;53.320;8.672;2023-02-12T07:03:26;103514.47;;;5.64;64.17
20656;BME280;10487;53.320;8.672;2023-02-12T07:06:29;103516.97;;;5.79;64.10
20656;BME280;10487;53.320;8.672;2023-02-12T07:09:31;103516.81;;;5.92;64.11
20656;BME280;10487;53.320;8.672;2023-02-12T07:12:33;103514.94;;;6.02;63.79
20656;BME280;10487;53.320;8.672;2023-02-12T07:15:38;103520.25;;;5.99;63.49
20656;BME280;10487;53.320;8.672;2023-02-12T07:18:41;103525.66;;;5.91;63.75
20656;BME280;10487;53.320;8.672;2023-02-12T07:21:42;103526.63;;;5.83;63.54
20656;BME280;10487;53.320;8.672;2023-02-12T07:24:45;103523.16;;;5.75;63.52
20656;BME280;10487;53.320;8.672;2023-02-12T07:27:46;103529.44;;;5.68;63.52
20656;BME280;10487;53.320;8.672;2023-02-12T07:30:48;103532.16;;;5.60;63.58
20656;BME280;10487;53.320;8.672;2023-02-12T07:33:54;103535.72;;;5.55;63.77
20656;BME280;10487;53.320;8.672;2023-02-12T07:36:56;103535.78;;;5.50;63.66
20656;BME280;10487;53.320;8.672;2023-02-12T07:39:58;103534.03;;;5.45;63.65
20656;BME280;10487;53.320;8.672;2023-02-12T07:42:59;103545.53;;;5.42;63.77
20656;BME280;10487;53.320;8.672;2023-02-12T07:46:05;103544.69;;;5.37;63.83
20656;BME280;10487;53.320;8.672;2023-02-12T07:49:12;103557.09;;;5.36;63.76
20656;BME280;10487;53.320;8.672;2023-02-12T07:52:14;103546.50;;;5.33;63.82
20656;BME280;10487;53.320;8.672;2023-02-12T07:55:16;103559.78;;;5.32;63.74
20656;BME280;10487;53.320;8.672;2023-02-12T07:58:17;103561.53;;;5.30;63.88
20656;BME280;10487;53.320;8.672;2023-02-12T08:01:21;103564.19;;;5.28;63.71
20656;BME280;10487;53.320;8.672;2023-02-12T08:04:24;103560.69;;;5.26;63.79
20656;BME280;10487;53.320;8.672;2023-02-12T08:07:26;103558.91;;;5.25;63.76
20656;BME280;10487;53.320;8.672;2023-02-12T08:10:27;103559.84;;;5.24;63.75
20656;BME280;10487;53.320;8.672;2023-02-12T08:13:33;103566.88;;;5.24;63.81
20656;BME280;10487;53.320;8.672;2023-02-12T08:16:37;103563.38;;;5.22;63.86
20656;BME280;10487;53.320;8.672;2023-02-12T08:19:39;103563.38;;;5.20;63.91
20656;BME280;10487;53.320;8.672;2023-02-12T08:22:41;103576.59;;;5.20;63.79
20656;BME280;10487;53.320;8.672;2023-02-12T08:25:42;103573.97;;;5.20;63.90
20656;BME280;10487;53.320;8.672;2023-02-12T08:28:54;103571.31;;;5.22;63.85
20656;BME280;10487;53.320;8.672;2023-02-12T08:32:00;103571.31;;;5.22;63.93
20656;BME280;10487;53.320;8.672;2023-02-12T08:35:03;103578.38;;;5.21;63.80
20656;BME280;10487;53.320;8.672;2023-02-12T08:38:04;103575.72;;;5.20;63.86
20656;BME280;10487;53.320;8.672;2023-02-12T08:41:09;103580.16;;;5.19;64.08
20656;BME280;10487;53.320;8.672;2023-02-12T08:44:11;103581.03;;;5.18;64.02
20656;BME280;10487;53.320;8.672;2023-02-12T08:47:13;103589.84;;;5.22;63.94
20656;BME280;10487;53.320;8.672;2023-02-12T08:50:15;103588.06;;;5.22;63.83
20656;BME280;10487;53.320;8.672;2023-02-12T08:53:16;103596.00;;;5.22;63.86
20656;BME280;10487;53.320;8.672;2023-02-12T08:56:18;103598.66;;;5.22;63.82
20656;BME280;10487;53.320;8.672;2023-02-12T08:59:20;103588.97;;;5.21;63.94
20656;BME280;10487;53.320;8.672;2023-02-12T09:02:21;103594.28;;;5.21;63.92
20656;BME280;10487;53.320;8.672;2023-02-12T09:05:23;103591.59;;;5.23;64.00
20656;BME280;10487;53.320;8.672;2023-02-12T09:08:25;103596.91;;;5.23;63.98
20656;BME280;10487;53.320;8.672;2023-02-12T09:11:28;103592.47;;;5.25;63.79
20656;BME280;10487;53.320;8.672;2023-02-12T09:14:32;103603.94;;;5.27;63.84
20656;BME280;10487;53.320;8.672;2023-02-12T09:17:34;103606.56;;;5.28;63.96
20656;BME280;10487;53.320;8.672;2023-02-12T09:20:37;103598.63;;;5.28;63.90
20656;BME280;10487;53.320;8.672;2023-02-12T09:23:40;103603.91;;;5.28;63.88
20656;BME280;10487;53.320;8.672;2023-02-12T09:26:41;103607.44;;;5.30;63.86
20656;BME280;10487;53.320;8.672;2023-02-12T09:29:43;103602.16;;;5.32;64.00
20656;BME280;10487;53.320;8.672;2023-02-12T09:32:45;103605.66;;;5.34;64.08
20656;BME280;10487;53.320;8.672;2023-02-12T09:35:46;103607.41;;;5.36;63.94
20656;BME280;10487;53.320;8.672;2023-02-12T09:38:48;103617.94;;;5.39;63.92
20656;BME280;10487;53.320;8.672;2023-02-12T09:42:03;103619.69;;;5.42;63.95
20656;BME280;10487;53.320;8.672;2023-02-12T09:45:19;103617.06;;;5.44;64.03
20656;BME280;10487;53.320;8.672;2023-02-12T09:48:47;103625.00;;;5.44;63.84
20656;BME280;10487;53.320;8.672;2023-02-12T09:51:54;103620.59;;;5.43;63.90
20656;BME280;10487;53.320;8.672;2023-02-12T09:54:56;103631.16;;;5.46;64.00
20656;BME280;10487;53.320;8.672;2023-02-12T09:58:03;103631.16;;;5.49;64.01
20656;BME280;10487;53.320;8.672;2023-02-12T10:01:12;103637.28;;;5.52;64.13
20656;BME280;10487;53.320;8.672;2023-02-12T10:04:14;103640.81;;;5.54;63.91
20656;BME280;10487;53.320;8.672;2023-02-12T10:26:18;103642.44;;;5.70;63.86
20656;BME280;10487;53.320;8.672;2023-02-12T10:29:28;103641.56;;;5.70;64.06
20656;BME280;10487;53.320;8.672;2023-02-12T10:32:33;103638.94;;;5.71;63.90
20656;BME280;10487;53.320;8.672;2023-02-12T10:35:44;103634.50;;;5.73;63.92
20656;BME280;10487;53.320;8.672;2023-02-12T10:38:52;103640.63;;;5.77;63.96
20656;BME280;10487;53.320;8.672;2023-02-12T10:42:03;103637.97;;;5.81;64.09
20656;BME280;10487;53.320;8.672;2023-02-12T10:45:20;103631.72;;;5.85;64.11
20656;BME280;10487;53.320;8.672;2023-02-12T10:48:34;103635.22;;;5.90;64.06
20656;BME280;10487;53.320;8.672;2023-02-12T10:51:55;103631.69;;;5.91;63.99
20656;BME280;10487;53.320;8.672;2023-02-12T10:54:57;103629.91;;;5.93;64.18
20656;BME280;10487;53.320;8.672;2023-02-12T10:58:02;103629.88;;;5.96;64.05
20656;BME280;10487;53.320;8.672;2023-02-12T11:01:04;103630.72;;;5.97;64.08
20656;BME280;10487;53.320;8.672;2023-02-12T11:04:28;103633.38;;;5.98;63.91
20656;BME280;10487;53.320;8.672;2023-02-12T11:07:45;103632.97;;;6.38;65.24
20656;BME280;10487;53.320;8.672;2023-02-12T11:10:47;103625.38;;;6.84;65.47
20656;BME280;10487;53.320;8.672;2023-02-12T11:13:55;103634.53;;;7.27;64.89
20656;BME280;10487;53.320;8.672;2023-02-12T11:16:59;103627.25;;;7.40;64.51
20656;BME280;10487;53.320;8.672;2023-02-12T11:26:27;103625.81;;;7.17;63.97
20656;BME280;10487;53.320;8.672;2023-02-12T11:29:29;103627.72;;;7.08;64.13
20656;BME280;10487;53.320;8.672;2023-02-12T11:32:33;103620.75;;;6.99;63.83
20656;BME280;10487;53.320;8.672;2023-02-12T11:35:35;103618.19;;;6.93;64.08
20656;BME280;10487;53.320;8.672;2023-02-12T11:38:48;103612.91;;;6.89;64.25
20656;BME280;10487;53.320;8.672;2023-02-12T11:42:00;103626.28;;;6.81;64.17
20656;BME280;10487;53.320;8.672;2023-02-12T11:45:05;103616.66;;;6.76;64.10
20656;BME280;10487;53.320;8.672;2023-02-12T11:48:19;103617.56;;;6.73;64.24
20656;BME280;10487;53.320;8.672;2023-02-12T11:51:26;103615.84;;;6.71;64.27
20656;BME280;10487;53.320;8.672;2023-02-12T11:54:40;103614.06;;;6.69;64.17
20656;BME280;10487;53.320;8.672;2023-02-12T11:57:45;103605.22;;;6.67;64.17
20656;BME280;10487;53.320;8.672;2023-02-12T12:04:22;103599.94;;;6.64;64.08
20656;BME280;10487;53.320;8.672;2023-02-12T12:07:29;103595.56;;;6.62;64.15
20656;BME280;10487;53.320;8.672;2023-02-12T12:10:46;103599.97;;;6.61;63.97
20656;BME280;10487;53.320;8.672;2023-02-12T12:14:02;103591.16;;;6.59;64.10
20656;BME280;10487;53.320;8.672;2023-02-12T12:17:13;103594.72;;;6.58;63.94
20656;BME280;10487;53.320;8.672;2023-02-12T12:21:00;103598.28;;;6.54;64.06
20656;BME280;10487;53.320;8.672;2023-02-12T12:24:19;103603.63;;;6.53;63.99
20656;BME280;10487;53.320;8.672;2023-02-12T12:27:33;103597.47;;;6.49;64.10
20656;BME280;10487;53.320;8.672;2023-02-12T12:30:57;103592.22;;;6.45;64.20
20656;BME280;10487;53.320;8.672;2023-02-12T12:37:21;103591.34;;;6.46;64.08
20656;BME280;10487;53.320;8.672;2023-02-12T12:43:58;103581.66;;;6.43;64.13
20656;BME280;10487;53.320;8.672;2023-02-12T12:47:20;103581.63;;;6.42;64.19
20656;BME280;10487;53.320;8.672;2023-02-12T13:00:11;103578.16;;;6.37;63.87
20656;BME280;10487;53.320;8.672;2023-02-12T13:03:27;103572.91;;;6.35;64.22
20656;BME280;10487;53.320;8.672;2023-02-12T13:10:21;103571.16;;;6.33;64.08
20656;BME280;10487;53.320;8.672;2023-02-12T13:13:36;103566.72;;;6.32;64.06
20656;BME280;10487;53.320;8.672;2023-02-12T13:16:59;103560.56;;;6.30;64.15
20656;BME280;10487;53.320;8.672;2023-02-12T13:20:20;103562.34;;;6.29;64.21
20656;BME280;10487;53.320;8.672;2023-02-12T13:27:02;103552.66;;;6.28;64.01
20656;BME280;10487;53.320;8.672;2023-02-12T13:33:23;103550.81;;;6.32;64.09
20656;BME280;10487;53.320;8.672;2023-02-12T13:36:26;103550.78;;;6.35;64.25
20656;BME280;10487;53.320;8.672;2023-02-12T13:39:39;103552.53;;;6.37;64.07
20656;BME280;10487;53.320;8.672;2023-02-12T13:53:00;103549.88;;;6.37;63.93
20656;BME280;10487;53.320;8.672;2023-02-12T14:05:35;103539.22;;;6.40;64.15
20656;BME280;10487;53.320;8.672;2023-02-12T14:08:39;103541.84;;;6.43;64.17
20656;BME280;10487;53.320;8.672;2023-02-12T14:11:51;103539.13;;;6.46;64.18
20656;BME280;10487;53.320;8.672;2023-02-12T14:18:31;103552.38;;;6.49;63.93
20656;BME280;10487;53.320;8.672;2023-02-12T14:21:33;103548.84;;;6.50;63.99
20656;BME280;10487;53.320;8.672;2023-02-12T14:27:53;103547.09;;;6.48;64.08
20656;BME280;10487;53.320;8.672;2023-02-12T14:31:20;103550.66;;;6.45;64.09
20656;BME280;10487;53.320;8.672;2023-02-12T14:37:33;103547.16;;;6.42;64.11
20656;BME280;10487;53.320;8.672;2023-02-12T14:40:41;103553.31;;;6.44;64.02
20656;BME280;10487;53.320;8.672;2023-02-12T14:43:44;103551.53;;;6.44;64.13
20656;BME280;10487;53.320;8.672;2023-02-12T14:47:11;103555.09;;;6.45;64.01
20656;BME280;10487;53.320;8.672;2023-02-12T14:50:18;103560.41;;;6.45;64.10
20656;BME280;10487;53.320;8.672;2023-02-12T14:53:32;103545.34;;;6.44;64.05
20656;BME280;10487;53.320;8.672;2023-02-12T14:56:42;103556.03;;;6.41;63.98
20656;BME280;10487;53.320;8.672;2023-02-12T14:59:47;103556.03;;;6.41;64.12
20656;BME280;10487;53.320;8.672;2023-02-12T15:03:17;103554.22;;;6.41;63.94
20656;BME280;10487;53.320;8.672;2023-02-12T15:06:17;103562.03;;;6.55;64.69
20656;BME280;10487;53.320;8.672;2023-02-12T15:09:31;103561.03;;;6.63;64.30
20656;BME280;10487;53.320;8.672;2023-02-12T15:12:44;103569.88;;;6.64;64.13
20656;BME280;10487;53.320;8.672;2023-02-12T15:16:06;103561.03;;;6.63;64.14
20656;BME280;10487;53.320;8.672;2023-02-12T15:19:20;103566.41;;;6.60;64.05
20656;BME280;10487;53.320;8.672;2023-02-12T15:22:30;103562.88;;;6.58;64.09
20656;BME280;10487;53.320;8.672;2023-02-12T15:25:33;103558.47;;;6.57;64.03
20656;BME280;10487;53.320;8.672;2023-02-12T15:28:35;103551.38;;;6.58;64.05
20656;BME280;10487;53.320;8.672;2023-02-12T15:31:38;103556.69;;;6.58;64.18
20656;BME280;10487;53.320;8.672;2023-02-12T15:34:39;103547.88;;;6.56;64.21
20656;BME280;10487;53.320;8.672;2023-02-12T15:37:45;103552.31;;;6.55;63.78
20656;BME280;10487;53.320;8.672;2023-02-12T15:40:55;103557.63;;;6.55;64.00
20656;BME280;10487;53.320;8.672;2023-02-12T15:43:58;103556.72;;;6.55;64.11
20656;BME280;10487;53.320;8.672;2023-02-12T15:47:14;103547.88;;;6.54;64.04
20656;BME280;10487;53.320;8.672;2023-02-12T15:50:16;103551.47;;;6.53;64.13
20656;BME280;10487;53.320;8.672;2023-02-12T15:53:19;103555.88;;;6.53;64.13
20656;BME280;10487;53.320;8.672;2023-02-12T15:56:23;103546.16;;;6.52;64.19
20656;BME280;10487;53.320;8.672;2023-02-12T15:59:27;103537.31;;;6.51;63.98
20656;BME280;10487;53.320;8.672;2023-02-12T16:02:31;103537.34;;;6.50;64.02
20656;BME280;10487;53.320;8.672;2023-02-12T16:05:36;103549.75;;;6.48;64.02
20656;BME280;10487;53.320;8.672;2023-02-12T16:08:38;103548.88;;;6.47;64.17
20656;BME280;10487;53.320;8.672;2023-02-12T16:11:45;103548.88;;;6.47;64.17
20656;BME280;10487;53.320;8.672;2023-02-12T16:14:57;103552.41;;;6.46;64.12
20656;BME280;10487;53.320;8.672;2023-02-12T16:18:03;103560.41;;;6.45;64.06
20656;BME280;10487;53.320;8.672;2023-02-12T16:21:11;103555.97;;;6.44;64.06
20656;BME280;10487;53.320;8.672;2023-02-12T16:24:21;103559.47;;;6.47;64.10
20656;BME280;10487;53.320;8.672;2023-02-12T16:27:34;103572.63;;;6.58;64.02
20656;BME280;10487;53.320;8.672;2023-02-12T16:30:38;103568.19;;;6.57;63.99
20656;BME280;10487;53.320;8.672;2023-02-12T16:33:51;103566.44;;;6.57;64.14
20656;BME280;10487;53.320;8.672;2023-02-12T16:36:54;103570.00;;;6.55;63.84
20656;BME280;10487;53.320;8.672;2023-02-12T16:43:24;103572.69;;;6.52;64.11
20656;BME280;10487;53.320;8.672;2023-02-12T16:46:28;103567.38;;;6.52;64.10
20656;BME280;10487;53.320;8.672;2023-02-12T16:49:30;103578.00;;;6.53;63.96
20656;BME280;10487;53.320;8.672;2023-02-12T16:52:39;103574.41;;;6.54;63.89
20656;BME280;10487;53.320;8.672;2023-02-12T16:55:41;103574.44;;;6.53;63.92
20656;BME280;10487;53.320;8.672;2023-02-12T16:58:44;103580.63;;;6.53;63.73
20656;BME280;10487;53.320;8.672;2023-02-12T17:02:01;103585.94;;;6.53;63.89
20656;BME280;10487;53.320;8.672;2023-02-12T17:05:04;103585.06;;;6.53;63.75
20656;BME280;10487;53.320;8.672;2023-02-12T17:08:25;103585.06;;;6.51;63.72
20656;BME280;10487;53.320;8.672;2023-02-12T17:11:27;103589.47;;;6.52;63.85
20656;BME280;10487;53.320;8.672;2023-02-12T17:14:29;103587.72;;;6.53;63.75
20656;BME280;10487;53.320;8.672;2023-02-12T17:17:37;103593.84;;;6.56;63.46
20656;BME280;10487;53.320;8.672;2023-02-12T17:20:39;103587.69;;;6.56;63.61
20656;BME280;10487;53.320;8.672;2023-02-12T17:23:41;103593.84;;;6.56;63.50
20656;BME280;10487;53.320;8.672;2023-02-12T17:26:42;103597.38;;;6.57;63.59
20656;BME280;10487;53.320;8.672;2023-02-12T17:29:45;103597.38;;;6.57;63.60
20656;BME280;10487;53.320;8.672;2023-02-12T17:32:46;103602.69;;;6.58;63.62
20656;BME280;10487;53.320;8.672;2023-02-12T17:35:50;103592.06;;;6.57;63.45
20656;BME280;10487;53.320;8.672;2023-02-12T17:38:52;103604.47;;;6.56;63.51
20656;BME280;10487;53.320;8.672;2023-02-12T17:41:53;103598.25;;;6.57;63.45
20656;BME280;10487;53.320;8.672;2023-02-12T17:44:55;103601.81;;;6.58;63.52
20656;BME280;10487;53.320;8.672;2023-02-12T17:47:57;103612.38;;;6.59;63.38
20656;BME280;10487;53.320;8.672;2023-02-12T17:50:59;103607.06;;;6.61;63.52
20656;BME280;10487;53.320;8.672;2023-02-12T17:54:01;103613.25;;;6.61;63.24
20656;BME280;10487;53.320;8.672;2023-02-12T17:57:02;103607.94;;;6.61;63.38
20656;BME280;10487;53.320;8.672;2023-02-12T18:00:06;103615.00;;;6.62;63.35
20656;BME280;10487;53.320;8.672;2023-02-12T18:03:08;103614.16;;;6.60;63.45
20656;BME280;10487;53.320;8.672;2023-02-12T18:06:10;103609.75;;;6.61;63.22
20656;BME280;10487;53.320;8.672;2023-02-12T18:09:14;103610.59;;;6.61;63.33
20656;BME280;10487;53.320;8.672;2023-02-12T18:12:16;103615.88;;;6.61;63.55
20656;BME280;10487;53.320;8.672;2023-02-12T18:15:19;103619.44;;;6.62;63.21
20656;BME280;10487;53.320;8.672;2023-02-12T18:18:21;103616.81;;;6.60;63.21
20656;BME280;10487;53.320;8.672;2023-02-12T18:21:23;103620.34;;;6.59;63.21
20656;BME280;10487;53.320;8.672;2023-02-12T18:24:24;103615.03;;;6.59;63.22
20656;BME280;10487;53.320;8.672;2023-02-12T18:27:26;103615.88;;;6.61;63.26
20656;BME280;10487;53.320;8.672;2023-02-12T18:30:27;103614.16;;;6.60;63.09
20656;BME280;10487;53.320;8.672;2023-02-12T18:33:30;103615.94;;;6.60;63.03
20656;BME280;10487;53.320;8.672;2023-02-12T18:36:32;103613.25;;;6.61;63.21